Time;durP1;ratioP1;P1;durP2;ratioP2;P2;SDS_P1;SDS_P2;PMS_P1;PMS_P2;Temp;Humidity;BMP_temperature;BMP_pressure;BME280_temperature;BME280_humidity;BME280_pressure;Samples;Min_cycle;Max_cycle;Signal;HPM_P1;HPM_P2
2023/10/01 00:00:05;;;;;;;14.00;5.57;;;15.40;99.90;;;;;;5034963;28;20050;-51
2023/10/01 00:02:32;;;;;;;13.93;5.95;;;15.50;99.90;;;;;;5034942;28;20095;-49
2023/10/01 00:04:59;;;;;;;15.98;6.13;;;15.40;99.90;;;;;;5034726;28;20037;-52
2023/10/01 00:07:26;;;;;;;16.98;6.50;;;15.40;99.90;;;;;;5034649;28;20041;-54
2023/10/01 00:09:53;;;;;;;15.20;6.10;;;15.40;99.90;;;;;;5034607;28;20038;-50
2023/10/01 00:12:23;;;;;;;13.50;6.05;;;15.40;99.90;;;;;;5034837;28;20362;-53
2023/10/01 00:14:53;;;;;;;18.45;6.78;;;15.40;99.90;;;;;;5034185;28;20064;-49
2023/10/01 00:17:23;;;;;;;17.92;6.80;;;15.40;99.90;;;;;;5034600;28;20037;-50
2023/10/01 00:19:49;;;;;;;12.73;6.53;;;15.40;99.90;;;;;;5034116;28;20051;-50
2023/10/01 00:22:17;;;;;;;17.08;6.72;;;15.40;99.90;;;;;;5034786;28;20045;-51
2023/10/01 00:24:44;;;;;;;14.45;6.40;;;15.30;99.90;;;;;;5034068;28;20045;-50
2023/10/01 00:27:11;;;;;;;15.77;6.60;;;15.30;99.90;;;;;;5034030;28;20114;-50
2023/10/01 00:29:38;;;;;;;16.65;6.82;;;15.30;99.90;;;;;;5033343;28;20128;-49
2023/10/01 00:32:04;;;;;;;15.93;6.75;;;15.30;99.90;;;;;;5034390;28;20046;-49
2023/10/01 00:34:31;;;;;;;15.57;5.72;;;15.30;99.90;;;;;;5034320;28;20508;-46
2023/10/01 00:36:58;;;;;;;14.60;6.22;;;15.30;99.90;;;;;;5033970;28;20041;-52
2023/10/01 00:39:25;;;;;;;17.83;7.10;;;15.30;99.90;;;;;;5034076;28;20054;-50
2023/10/01 00:41:52;;;;;;;17.83;6.40;;;15.30;99.90;;;;;;5032754;28;20037;-51
2023/10/01 00:44:19;;;;;;;17.42;6.28;;;15.30;99.90;;;;;;5032776;28;20038;-51
2023/10/01 00:46:45;;;;;;;16.10;6.68;;;15.20;99.90;;;;;;5033805;28;20424;-51
2023/10/01 00:49:13;;;;;;;15.63;6.75;;;15.30;99.90;;;;;;5033961;28;20044;-49
2023/10/01 00:51:43;;;;;;;18.92;6.90;;;15.30;99.90;;;;;;5032755;28;20093;-48
2023/10/01 00:54:10;;;;;;;19.30;6.93;;;15.30;99.90;;;;;;5033635;28;20045;-51
2023/10/01 00:56:39;;;;;;;14.90;6.55;;;15.30;99.90;;;;;;5034056;28;20099;-48
2023/10/01 00:59:10;;;;;;;15.82;6.60;;;15.30;99.90;;;;;;5033782;28;20107;-49
2023/10/01 01:01:39;;;;;;;18.10;7.30;;;15.30;99.90;;;;;;5032625;28;20081;-47
2023/10/01 01:04:17;;;;;;;20.00;6.68;;;15.40;99.90;;;;;;5032407;28;20488;-50
2023/10/01 01:06:47;;;;;;;17.52;6.78;;;15.30;99.90;;;;;;5033641;28;20117;-53
2023/10/01 01:09:15;;;;;;;16.80;6.82;;;15.30;99.90;;;;;;5032073;28;20091;-48
2023/10/01 01:11:42;;;;;;;16.30;6.80;;;15.30;99.90;;;;;;5033779;28;20040;-52
2023/10/01 01:14:09;;;;;;;16.52;6.78;;;15.30;99.90;;;;;;5033563;28;20042;-49
2023/10/01 01:16:36;;;;;;;15.20;6.97;;;15.30;99.90;;;;;;5033568;28;20144;-49
2023/10/01 01:19:03;;;;;;;15.35;7.22;;;15.30;99.90;;;;;;5033149;28;20037;-52
2023/10/01 01:21:30;;;;;;;15.63;7.18;;;15.30;99.90;;;;;;5033354;28;20037;-49
2023/10/01 01:23:58;;;;;;;18.98;7.97;;;15.30;99.90;;;;;;5031900;28;20050;-52
2023/10/01 01:26:25;;;;;;;17.98;6.90;;;15.30;99.90;;;;;;5033172;28;20116;-50
2023/10/01 01:28:52;;;;;;;15.32;6.90;;;15.30;99.90;;;;;;5031619;28;20091;-50
2023/10/01 01:31:19;;;;;;;15.00;6.60;;;15.30;99.90;;;;;;5033160;28;20140;-54
2023/10/01 01:33:56;;;;;;;17.92;7.20;;;15.30;99.90;;;;;;5033400;28;20500;-53
2023/10/01 01:36:23;;;;;;;16.20;6.93;;;15.40;99.90;;;;;;5033306;28;20043;-52
2023/10/01 01:38:50;;;;;;;17.33;6.70;;;15.40;99.90;;;;;;5033146;28;20045;-48
2023/10/01 01:41:19;;;;;;;16.88;6.95;;;15.40;99.90;;;;;;5033023;28;20052;-50
2023/10/01 01:43:49;;;;;;;13.13;6.88;;;15.40;99.90;;;;;;5031933;28;20048;-49
2023/10/01 01:46:16;;;;;;;15.75;6.70;;;15.30;99.90;;;;;;5033397;28;20087;-50
2023/10/01 01:48:43;;;;;;;17.80;7.57;;;15.30;99.90;;;;;;5031614;28;20423;-52
2023/10/01 01:51:10;;;;;;;19.95;8.07;;;15.30;99.90;;;;;;5032928;28;20074;-51
2023/10/01 01:53:41;;;;;;;18.35;7.93;;;15.30;99.90;;;;;;5031730;28;20053;-48
2023/10/01 01:56:08;;;;;;;16.50;7.28;;;15.20;99.90;;;;;;5032076;28;20136;-54
2023/10/01 01:58:35;;;;;;;16.50;7.18;;;15.30;99.90;;;;;;5032226;28;20041;-50
2023/10/01 02:01:08;;;;;;;16.98;6.78;;;15.20;99.90;;;;;;5033287;28;20354;-55
2023/10/01 02:03:39;;;;;;;15.00;7.07;;;15.20;99.90;;;;;;5032898;28;20042;-55
2023/10/01 02:06:09;;;;;;;18.45;7.75;;;15.20;99.90;;;;;;5031524;28;20053;-51
2023/10/01 02:08:48;;;;;;;18.25;7.20;;;15.20;99.90;;;;;;5032999;28;20037;-51
2023/10/01 02:11:15;;;;;;;17.20;7.22;;;15.20;99.90;;;;;;5033040;28;20040;-51
2023/10/01 02:13:45;;;;;;;16.38;7.45;;;15.20;99.90;;;;;;5032057;28;20038;-50
2023/10/01 02:19:11;;;;;;;18.67;7.40;;;15.30;99.90;;;;;;5036425;28;20111;-49
2023/10/01 02:21:59;;;;;;;18.55;7.47;;;15.30;99.90;;;;;;5035599;28;20136;-52
2023/10/01 02:24:45;;;;;;;16.40;7.13;;;15.30;99.90;;;;;;5036911;28;20099;-52
2023/10/01 02:27:12;;;;;;;17.85;7.35;;;15.40;99.90;;;;;;5036492;28;20038;-53
2023/10/01 02:30:12;;;;;;;16.73;6.60;;;15.40;99.90;;;;;;5036633;28;20112;-53
2023/10/01 02:32:33;;;;;;;20.85;7.53;;;15.50;99.90;;;;;;5035217;28;20103;-51
2023/10/01 02:35:03;;;;;;;21.02;7.38;;;15.50;99.90;;;;;;5036326;28;20038;-49
2023/10/01 02:37:34;;;;;;;16.42;7.32;;;15.50;99.90;;;;;;5035045;28;20087;-49
2023/10/01 02:40:14;;;;;;;21.23;8.35;;;15.60;99.90;;;;;;5036525;28;20080;-53
2023/10/01 02:42:43;;;;;;;22.35;7.90;;;15.60;99.90;;;;;;5034919;28;20184;-49
2023/10/01 02:45:30;;;;;;;17.98;6.93;;;15.60;99.90;;;;;;5034738;28;20068;-54
2023/10/01 02:48:13;;;;;;;16.40;7.07;;;15.60;99.90;;;;;;5036242;28;20088;-54
2023/10/01 02:50:40;;;;;;;19.17;7.78;;;15.70;99.90;;;;;;5034496;28;20053;-49
2023/10/01 02:53:08;;;;;;;16.02;7.70;;;15.70;99.90;;;;;;5034878;28;20046;-47
2023/10/01 02:55:35;;;;;;;18.20;8.05;;;15.70;99.90;;;;;;5036177;28;20087;-51
2023/10/01 02:58:17;;;;;;;15.48;7.38;;;15.70;99.90;;;;;;5035629;28;20037;-53
2023/10/01 03:00:44;;;;;;;14.88;7.00;;;15.80;99.90;;;;;;5034376;28;20053;-46
2023/10/01 03:03:15;;;;;;;15.00;7.00;;;15.80;99.90;;;;;;5035589;28;20059;-46
2023/10/01 03:05:46;;;;;;;18.92;7.25;;;15.80;99.90;;;;;;5035651;28;20128;-50
2023/10/01 03:11:02;;;;;;;14.23;6.57;;;15.80;99.90;;;;;;5035801;28;20096;-53
2023/10/01 03:13:32;;;;;;;15.65;6.60;;;15.80;99.90;;;;;;5035483;28;20090;-51
2023/10/01 03:18:48;;;;;;;19.08;7.38;;;15.80;99.90;;;;;;5035363;28;20042;-51
2023/10/01 03:21:33;;;;;;;16.05;6.60;;;15.80;99.90;;;;;;5035263;28;20103;-54
2023/10/01 03:24:03;;;;;;;17.88;7.22;;;15.80;99.90;;;;;;5035304;28;20049;-53
2023/10/01 03:26:33;;;;;;;18.80;7.25;;;15.80;99.90;;;;;;5034749;28;20065;-47
2023/10/01 03:29:17;;;;;;;18.02;7.43;;;15.70;99.90;;;;;;5034951;28;20044;-51
2023/10/01 03:31:46;;;;;;;19.65;7.22;;;15.70;99.90;;;;;;5034987;28;20042;-52
2023/10/01 03:34:28;;;;;;;18.73;7.32;;;15.70;99.90;;;;;;5035438;28;20447;-52
2023/10/01 03:36:58;;;;;;;19.80;8.10;;;15.70;99.90;;;;;;5034980;28;20172;-51
2023/10/01 03:39:25;;;;;;;18.90;7.50;;;15.70;99.90;;;;;;5035145;28;20051;-49
2023/10/01 03:42:17;;;;;;;20.60;7.30;;;15.70;99.90;;;;;;5035331;28;20041;-52
2023/10/01 03:47:29;;;;;;;16.00;6.90;;;15.70;99.90;;;;;;5034861;28;20068;-46
2023/10/01 03:49:57;;;;;;;16.58;6.75;;;15.60;99.90;;;;;;5034632;28;20065;-49
2023/10/01 03:52:28;;;;;;;19.80;7.53;;;15.70;99.90;;;;;;5034875;28;20366;-49
2023/10/01 03:57:25;;;;;;;16.85;7.75;;;15.60;99.90;;;;;;5034821;28;20053;-47
2023/10/01 03:59:52;;;;;;;18.27;7.15;;;15.60;99.90;;;;;;5034864;28;20531;-48
2023/10/01 04:02:27;;;;;;;17.85;7.18;;;15.60;99.90;;;;;;5034735;28;20045;-51
2023/10/01 04:04:57;;;;;;;15.50;7.38;;;15.60;99.90;;;;;;5034661;28;20041;-53
2023/10/01 04:07:26;;;;;;;17.23;7.68;;;15.60;99.90;;;;;;5034282;28;20061;-53
2023/10/01 04:09:53;;;;;;;18.48;6.95;;;15.60;99.90;;;;;;5033591;28;20061;-53
2023/10/01 04:12:32;;;;;;;23.77;7.93;;;15.50;99.90;;;;;;5034652;28;20044;-54
2023/10/01 04:15:03;;;;;;;20.90;7.95;;;15.50;99.90;;;;;;5035001;28;20037;-53
2023/10/01 04:17:35;;;;;;;18.58;7.70;;;15.50;99.90;;;;;;5034403;28;20089;-53
2023/10/01 04:20:19;;;;;;;18.67;7.43;;;15.50;99.90;;;;;;5034573;28;20125;-49
2023/10/01 04:22:47;;;;;;;19.73;7.20;;;15.50;99.90;;;;;;5033383;28;20076;-54
2023/10/01 04:25:14;;;;;;;17.98;8.00;;;15.50;99.90;;;;;;5034482;28;20128;-50
2023/10/01 04:27:45;;;;;;;19.08;7.25;;;15.50;99.90;;;;;;5033961;28;20572;-46
2023/10/01 04:30:14;;;;;;;18.63;7.55;;;15.50;99.90;;;;;;5034047;28;20052;-52
2023/10/01 04:32:42;;;;;;;17.50;7.15;;;15.50;99.90;;;;;;5033791;28;20045;-52
2023/10/01 04:35:16;;;;;;;16.88;8.00;;;15.50;99.90;;;;;;5034520;28;20120;-48
2023/10/01 04:37:48;;;;;;;20.73;8.20;;;15.50;99.90;;;;;;5033230;28;20454;-55
2023/10/01 04:40:37;;;;;;;17.83;7.90;;;15.60;99.90;;;;;;5034105;28;20045;-51
2023/10/01 04:43:10;;;;;;;17.40;7.60;;;15.50;99.90;;;;;;5034398;28;20049;-51
2023/10/01 04:45:40;;;;;;;20.17;7.43;;;15.50;99.90;;;;;;5034109;28;20056;-51
2023/10/01 04:48:26;;;;;;;20.15;7.40;;;15.50;99.90;;;;;;5033796;28;20056;-51
2023/10/01 04:50:53;;;;;;;19.42;7.97;;;15.60;99.90;;;;;;5033497;28;20052;-50
2023/10/01 04:53:20;;;;;;;16.85;7.50;;;15.60;99.90;;;;;;5033705;28;20048;-49
2023/10/01 04:56:00;;;;;;;18.85;8.00;;;15.50;99.90;;;;;;5033770;28;20045;-51
2023/10/01 04:58:29;;;;;;;22.50;8.20;;;15.50;99.90;;;;;;5033516;28;20064;-50
2023/10/01 05:00:55;;;;;;;18.73;7.72;;;15.50;99.90;;;;;;5034094;28;20042;-50
2023/10/01 05:03:38;;;;;;;23.60;8.32;;;15.50;99.90;;;;;;5033670;28;20120;-53
2023/10/01 05:06:06;;;;;;;18.33;7.85;;;15.50;99.90;;;;;;5033553;28;20041;-53
2023/10/01 05:08:38;;;;;;;18.77;8.40;;;15.50;99.90;;;;;;5033562;28;20060;-49
2023/10/01 05:11:05;;;;;;;22.92;8.50;;;15.60;99.90;;;;;;5033908;28;20056;-52
2023/10/01 05:13:34;;;;;;;20.38;7.90;;;15.60;99.90;;;;;;5033561;28;20041;-50
2023/10/01 05:16:06;;;;;;;21.10;8.55;;;15.60;99.90;;;;;;5033504;28;20484;-51
2023/10/01 05:18:37;;;;;;;20.70;8.93;;;15.60;99.90;;;;;;5033475;28;20481;-48
2023/10/01 05:21:12;;;;;;;22.75;9.15;;;15.60;99.90;;;;;;5033294;28;20046;-50
2023/10/01 05:23:39;;;;;;;19.63;8.43;;;15.60;99.90;;;;;;5033474;28;20065;-52
2023/10/01 05:26:08;;;;;;;20.25;8.82;;;15.70;99.90;;;;;;5033360;28;20412;-52
2023/10/01 05:28:36;;;;;;;19.83;9.00;;;15.70;99.90;;;;;;5032972;28;20128;-49
2023/10/01 05:31:06;;;;;;;24.95;9.55;;;15.70;99.90;;;;;;5033474;28;20087;-48
2023/10/01 05:33:33;;;;;;;24.50;10.15;;;15.70;99.90;;;;;;5033402;28;20091;-53
2023/10/01 05:36:04;;;;;;;24.95;10.05;;;15.70;99.90;;;;;;5031861;28;20488;-51
2023/10/01 05:38:33;;;;;;;25.23;9.73;;;15.70;99.90;;;;;;5032893;28;20128;-50
2023/10/01 05:41:03;;;;;;;21.88;9.82;;;15.70;99.90;;;;;;5033119;28;20465;-47
2023/10/01 05:43:35;;;;;;;22.92;10.23;;;15.70;99.90;;;;;;5031890;28;20052;-49
2023/10/01 05:46:02;;;;;;;24.45;10.85;;;15.70;99.90;;;;;;5033238;28;20049;-48
2023/10/01 05:48:29;;;;;;;25.42;10.15;;;15.70;99.90;;;;;;5032808;28;20097;-49
2023/10/01 05:50:58;;;;;;;23.70;10.00;;;15.80;99.90;;;;;;5034609;28;20461;-47
2023/10/01 05:53:25;;;;;;;21.98;9.45;;;15.80;99.90;;;;;;5036952;28;20786;-52
2023/10/01 05:55:52;;;;;;;21.50;9.50;;;15.90;99.90;;;;;;5037067;28;20045;-49
2023/10/01 05:58:21;;;;;;;20.10;9.82;;;15.90;99.90;;;;;;5037569;28;20508;-53
2023/10/01 06:00:58;;;;;;;22.13;9.57;;;16.00;99.90;;;;;;5036973;28;20143;-51
2023/10/01 06:03:25;;;;;;;25.40;10.57;;;16.00;99.90;;;;;;5037514;28;20041;-49
2023/10/01 06:05:58;;;;;;;22.02;8.70;;;16.00;99.90;;;;;;5036862;28;20096;-52
2023/10/01 06:08:25;;;;;;;22.10;10.95;;;16.10;99.90;;;;;;5036646;28;20119;-48
2023/10/01 06:13:56;;;;;;;21.02;9.82;;;16.10;99.90;;;;;;5032184;28;20128;-51
2023/10/01 06:16:23;;;;;;;19.40;9.05;;;16.20;99.90;;;;;;5036350;28;20493;-53
2023/10/01 06:18:50;;;;;;;18.60;9.15;;;16.20;99.90;;;;;;5036781;28;20116;-53
2023/10/01 06:21:18;;;;;;;20.65;9.23;;;16.30;99.90;;;;;;5036677;28;20049;-53
2023/10/01 06:23:51;;;;;;;19.50;9.40;;;16.30;99.90;;;;;;5036786;28;20080;-49
2023/10/01 06:26:22;;;;;;;23.15;9.27;;;16.30;99.90;;;;;;5036704;28;20489;-54
2023/10/01 06:28:49;;;;;;;20.33;9.77;;;16.40;99.90;;;;;;5036245;28;20072;-49
2023/10/01 06:31:16;;;;;;;19.90;9.05;;;16.40;99.90;;;;;;5036445;28;20045;-49
2023/10/01 06:33:44;;;;;;;19.58;9.85;;;16.50;99.90;;;;;;5036551;28;20389;-50
2023/10/01 06:36:21;;;;;;;24.27;9.38;;;16.50;99.90;;;;;;5036517;28;20041;-46
2023/10/01 06:38:47;;;;;;;20.30;9.20;;;16.50;99.90;;;;;;5036063;28;20060;-49
2023/10/01 06:41:16;;;;;;;18.95;8.90;;;16.60;99.90;;;;;;5035879;28;20492;-51
2023/10/01 06:44:04;;;;;;;20.83;9.50;;;16.60;99.90;;;;;;5036133;28;20045;-53
2023/10/01 06:46:30;;;;;;;19.70;8.88;;;16.70;99.90;;;;;;5035921;28;20440;-54
2023/10/01 06:48:58;;;;;;;18.58;8.43;;;16.70;99.90;;;;;;5036072;28;20080;-49
2023/10/01 06:51:26;;;;;;;18.63;8.10;;;16.70;99.90;;;;;;5036104;28;20057;-49
2023/10/01 06:54:05;;;;;;;18.38;8.30;;;16.70;99.90;;;;;;5035831;28;20130;-49
2023/10/01 06:56:35;;;;;;;20.92;9.02;;;16.80;99.90;;;;;;5036196;28;20059;-51
2023/10/01 07:01:42;;;;;;;20.25;8.88;;;16.90;99.90;;;;;;5035373;28;20045;-54
2023/10/01 07:04:09;;;;;;;15.50;7.47;;;17.00;99.90;;;;;;5034512;28;20469;-52
2023/10/01 07:06:36;;;;;;;15.32;8.02;;;17.00;99.90;;;;;;5035738;28;20041;-52
2023/10/01 07:09:02;;;;;;;20.27;7.93;;;17.10;99.90;;;;;;5034163;28;20547;-51
2023/10/01 07:11:30;;;;;;;20.95;7.80;;;17.20;99.90;;;;;;5035785;28;20046;-54
2023/10/01 07:13:58;;;;;;;21.40;7.95;;;17.20;99.90;;;;;;5035680;28;20037;-51
2023/10/01 07:16:39;;;;;;;15.18;7.50;;;17.30;99.90;;;;;;5035125;28;20377;-50
2023/10/01 07:19:11;;;;;;;18.35;7.78;;;17.30;99.90;;;;;;5035414;28;20041;-48
2023/10/01 07:21:41;;;;;;;15.55;7.38;;;17.40;99.90;;;;;;5050867;28;20100;-49
2023/10/01 07:24:10;;;;;;;14.90;6.72;;;17.40;99.90;;;;;;5035176;28;20461;-47
2023/10/01 07:26:48;;;;;;;16.98;7.18;;;17.50;99.90;;;;;;5035699;28;20128;-53
2023/10/01 07:29:14;;;;;;;13.98;7.60;;;17.50;99.90;;;;;;5035491;28;20053;-47
2023/10/01 07:31:43;;;;;;;16.15;7.32;;;17.60;99.90;;;;;;5035069;28;20037;-50
2023/10/01 07:34:13;;;;;;;15.73;6.85;;;17.70;99.90;;;;;;5035180;28;20048;-51
2023/10/01 07:36:42;;;;;;;17.65;7.22;;;17.70;99.90;;;;;;5035495;28;20038;-53
2023/10/01 07:39:09;;;;;;;12.70;6.82;;;17.80;99.90;;;;;;5035480;28;20068;-52
2023/10/01 07:41:39;;;;;;;15.95;7.35;;;17.80;99.90;;;;;;5033597;28;20115;-48
2023/10/01 07:44:08;;;;;;;17.48;8.07;;;17.80;99.90;;;;;;5034992;28;20128;-46
2023/10/01 07:46:36;;;;;;;14.98;7.18;;;17.90;99.90;;;;;;5021310;28;20042;-52
2023/10/01 07:49:03;;;;;;;16.67;6.72;;;18.00;99.90;;;;;;5015305;28;20049;-57
2023/10/01 07:51:38;;;;;;;12.55;6.57;;;18.00;99.90;;;;;;5014747;28;20049;-47
2023/10/01 07:54:11;;;;;;;12.13;6.80;;;18.00;99.90;;;;;;5014929;28;20042;-50
2023/10/01 07:57:01;;;;;;;12.50;6.38;;;18.10;99.90;;;;;;5014967;28;20037;-48
2023/10/01 07:59:28;;;;;;;13.93;6.30;;;18.10;99.90;;;;;;5015099;28;20046;-48
2023/10/01 08:02:13;;;;;;;11.65;6.15;;;18.20;99.90;;;;;;5015316;28;20076;-48
2023/10/01 08:07:16;;;;;;;14.82;6.32;;;18.40;99.90;;;;;;5014501;28;20042;-53
2023/10/01 08:09:49;;;;;;;11.50;6.25;;;18.40;99.90;;;;;;5014655;28;20034;-50
2023/10/01 08:12:19;;;;;;;11.82;5.55;;;18.50;99.90;;;;;;5014755;28;20034;-51
2023/10/01 08:15:15;;;;;;;12.07;5.72;;;18.50;99.90;;;;;;5014160;28;20038;-54
2023/10/01 08:17:34;;;;;;;11.95;6.03;;;18.60;99.90;;;;;;5014658;28;20362;-49
2023/10/01 08:20:31;;;;;;;13.32;5.82;;;18.70;99.90;;;;;;5014804;28;20058;-47
2023/10/01 08:25:42;;;;;;;;;;;18.80;99.90;;;;;;5015247;28;20046;-50
2023/10/01 08:30:43;;;;;;;11.60;5.47;;;19.10;99.90;;;;;;5014477;28;20053;-48
2023/10/01 08:33:22;;;;;;;11.25;5.57;;;19.30;99.90;;;;;;5014569;28;20462;-47
2023/10/01 08:36:01;;;;;;;12.73;6.13;;;19.50;99.90;;;;;;5014549;28;20038;-50
2023/10/01 08:38:34;;;;;;;13.48;6.00;;;19.60;99.90;;;;;;5014185;28;20046;-47
2023/10/01 08:41:01;;;;;;;13.52;6.20;;;19.80;99.90;;;;;;5014282;28;20488;-49
2023/10/01 08:43:28;;;;;;;12.20;6.32;;;19.80;99.90;;;;;;5014373;28;20496;-50
2023/10/01 08:45:57;;;;;;;12.40;5.60;;;19.90;99.90;;;;;;5013941;28;20041;-50
2023/10/01 08:48:35;;;;;;;11.07;6.00;;;19.90;99.90;;;;;;5013910;28;20469;-53
2023/10/01 08:51:08;;;;;;;13.02;5.88;;;19.90;99.90;;;;;;5014197;28;20058;-48
2023/10/01 08:53:36;;;;;;;11.85;5.70;;;19.90;99.90;;;;;;5014372;28;20452;-53
2023/10/01 08:58:48;;;;;;;11.75;5.78;;;19.80;99.90;;;;;;5014044;28;20046;-45
2023/10/01 09:01:21;;;;;;;13.77;5.82;;;19.90;99.90;;;;;;5014070;28;20061;-50
2023/10/01 09:03:48;;;;;;;10.23;5.90;;;20.00;99.90;;;;;;5013729;28;20054;-51
2023/10/01 09:06:25;;;;;;;11.13;5.40;;;20.00;99.90;;;;;;5013875;28;20041;-50
2023/10/01 09:08:59;;;;;;;10.15;5.03;;;20.00;99.90;;;;;;5013906;28;20125;-50
2023/10/01 09:11:26;;;;;;;9.18;5.25;;;20.00;99.90;;;;;;5013468;28;20457;-51
2023/10/01 09:16:42;;;;;;;;;;;20.10;99.90;;;;;;5014166;28;20050;-48
2023/10/01 09:21:55;;;;;;;;;;;20.20;99.90;;;;;;5014089;28;20354;-48
2023/10/01 09:24:42;;;;;;;13.68;5.68;;;20.20;99.90;;;;;;5013500;28;19921;-47
2023/10/01 09:27:09;;;;;;;11.95;5.85;;;20.30;99.90;;;;;;5013436;28;20049;-48
2023/10/01 09:29:46;;;;;;;13.20;6.10;;;20.30;99.90;;;;;;5024261;28;20571;-51
2023/10/01 09:32:13;;;;;;;11.88;5.97;;;20.40;99.90;;;;;;5032941;28;20041;-47
2023/10/01 09:34:47;;;;;;;12.20;6.32;;;20.50;99.90;;;;;;5032623;28;20042;-48
2023/10/01 09:37:18;;;;;;;12.38;6.07;;;20.50;99.90;;;;;;5033014;28;20041;-49
2023/10/01 09:39:45;;;;;;;9.98;5.88;;;20.60;99.90;;;;;;5033036;28;20388;-54
2023/10/01 09:42:24;;;;;;;13.02;6.00;;;20.60;99.90;;;;;;5032722;28;20424;-48
2023/10/01 09:44:53;;;;;;;11.52;5.78;;;20.70;99.90;;;;;;5032849;28;20471;-47
2023/10/01 09:47:23;;;;;;;10.25;5.95;;;20.70;99.90;;;;;;5032805;28;20041;-49
2023/10/01 09:49:50;;;;;;;11.57;6.00;;;20.70;99.90;;;;;;5031402;28;20120;-48
2023/10/01 09:52:26;;;;;;;10.75;5.85;;;20.80;99.90;;;;;;5032626;28;20095;-54
2023/10/01 09:54:54;;;;;;;11.40;6.20;;;20.80;99.90;;;;;;5033262;28;20096;-52
2023/10/01 09:57:24;;;;;;;11.98;5.57;;;20.90;99.90;;;;;;5033093;28;20038;-49
2023/10/01 09:59:51;;;;;;;11.68;5.72;;;20.80;99.90;;;;;;5032760;28;20050;-48
2023/10/01 10:02:27;;;;;;;11.95;5.72;;;20.90;99.90;;;;;;5032652;28;20119;-49
2023/10/01 10:04:54;;;;;;;11.55;5.63;;;20.90;99.90;;;;;;5033218;28;20366;-47
2023/10/01 10:07:24;;;;;;;10.15;5.47;;;21.00;99.90;;;;;;5032665;28;20037;-51
2023/10/01 10:09:54;;;;;;;10.30;5.53;;;21.10;99.90;;;;;;5033125;28;20084;-50
2023/10/01 10:12:21;;;;;;;10.93;5.20;;;21.10;99.90;;;;;;5031726;28;20091;-54
2023/10/01 10:14:56;;;;;;;9.32;5.40;;;21.20;99.90;;;;;;5031293;28;20072;-47
2023/10/01 10:17:25;;;;;;;11.63;5.45;;;21.30;99.90;;;;;;5032463;28;20130;-46
2023/10/01 10:19:52;;;;;;;8.38;5.10;;;21.30;99.90;;;;;;5032509;28;20042;-52
2023/10/01 10:22:19;;;;;;;11.90;5.60;;;21.40;99.90;;;;;;5031104;28;20500;-50
2023/10/01 10:24:46;;;;;;;11.45;5.30;;;21.40;99.90;;;;;;5031014;28;20052;-51
2023/10/01 10:27:17;;;;;;;10.85;5.50;;;21.50;99.90;;;;;;5031056;28;20179;-48
2023/10/01 10:29:46;;;;;;;11.18;5.60;;;21.50;99.90;;;;;;5030005;28;20501;-50
2023/10/01 10:32:13;;;;;;;10.93;5.82;;;21.50;99.90;;;;;;5031134;28;20041;-50
2023/10/01 10:34:47;;;;;;;9.75;5.20;;;21.50;99.90;;;;;;5031661;28;20125;-52
2023/10/01 10:37:15;;;;;;;11.32;5.35;;;21.60;99.90;;;;;;5034378;28;20447;-52
2023/10/01 10:39:42;;;;;;;9.40;4.95;;;21.60;99.90;;;;;;5036396;28;20053;-49
2023/10/01 10:42:09;;;;;;;12.13;5.68;;;21.60;99.90;;;;;;5036468;28;20074;-51
2023/10/01 10:44:36;;;;;;;8.98;4.95;;;21.60;99.90;;;;;;5036474;28;20041;-50
2023/10/01 10:47:02;;;;;;;10.45;5.30;;;21.60;99.90;;;;;;5035208;28;20152;-51
2023/10/01 10:49:29;;;;;;;10.45;5.50;;;21.60;99.90;;;;;;5036142;28;20095;-50
2023/10/01 10:51:58;;;;;;;11.95;5.85;;;21.60;99.90;;;;;;5035777;28;20050;-47
2023/10/01 10:54:25;;;;;;;13.13;5.63;;;21.60;99.90;;;;;;5036012;28;20048;-49
2023/10/01 10:56:53;;;;;;;12.13;5.93;;;21.60;99.90;;;;;;5036040;28;20120;-49
2023/10/01 10:59:20;;;;;;;10.18;4.72;;;21.60;99.90;;;;;;5036341;28;20041;-53
2023/10/01 11:01:47;;;;;;;11.50;5.82;;;21.70;99.90;;;;;;5035722;28;20037;-51
2023/10/01 11:04:16;;;;;;;9.15;5.05;;;21.80;99.90;;;;;;5035867;28;20046;-50
2023/10/01 11:06:44;;;;;;;11.60;5.88;;;21.80;99.90;;;;;;5035657;28;20057;-54
2023/10/01 11:09:22;;;;;;;11.75;5.40;;;21.90;99.90;;;;;;5036072;28;20432;-47
2023/10/01 11:11:49;;;;;;;12.07;5.70;;;21.90;99.90;;;;;;5035699;28;20042;-49
2023/10/01 11:14:16;;;;;;;10.73;5.40;;;21.90;99.90;;;;;;5035773;28;20049;-53
2023/10/01 11:16:44;;;;;;;10.70;5.70;;;21.90;99.90;;;;;;5035438;28;20112;-47
2023/10/01 11:19:14;;;;;;;11.65;6.00;;;22.10;99.90;;;;;;5035658;28;20477;-52
2023/10/01 11:21:41;;;;;;;11.85;5.95;;;22.20;99.90;;;;;;5035663;28;20037;-47
2023/10/01 11:24:09;;;;;;;11.23;6.20;;;22.20;99.90;;;;;;5035525;28;20041;-50
2023/10/01 11:26:36;;;;;;;12.20;6.13;;;22.20;99.90;;;;;;5035633;28;20052;-51
2023/10/01 11:29:10;;;;;;;13.82;6.10;;;22.30;99.90;;;;;;5034880;28;20048;-48
2023/10/01 11:31:38;;;;;;;15.60;6.53;;;22.30;99.90;;;;;;5035868;28;20041;-52
2023/10/01 11:34:21;;;;;;;13.38;6.07;;;22.30;99.90;;;;;;5035517;28;20051;-45
2023/10/01 11:36:56;;;;;;;15.70;6.18;;;22.40;99.90;;;;;;5035583;28;20544;-49
2023/10/01 11:39:24;;;;;;;15.90;6.85;;;22.40;99.90;;;;;;5034846;28;20492;-47
2023/10/01 11:41:54;;;;;;;11.82;6.07;;;22.30;99.90;;;;;;5035230;28;20056;-50
2023/10/01 11:44:21;;;;;;;13.32;6.18;;;22.40;99.90;;;;;;5035711;28;20045;-52
2023/10/01 11:46:57;;;;;;;11.07;5.45;;;22.40;99.90;;;;;;5034921;28;20041;-50
2023/10/01 11:49:34;;;;;;;11.80;6.00;;;22.50;99.90;;;;;;5033952;28;20051;-49
2023/10/01 11:52:05;;;;;;;10.77;5.55;;;22.50;99.90;;;;;;5034788;28;20057;-53
2023/10/01 11:54:44;;;;;;;12.55;5.85;;;22.50;99.90;;;;;;5034805;28;20397;-47
2023/10/01 11:57:22;;;;;;;11.18;5.93;;;22.50;99.90;;;;;;5034661;28;20045;-50
2023/10/01 11:59:55;;;;;;;12.02;5.57;;;22.50;99.90;;;;;;5034329;28;20041;-50
2023/10/01 12:02:22;;;;;;;13.55;5.70;;;22.50;99.90;;;;;;5034760;28;20071;-50
2023/10/01 12:04:56;;;;;;;10.98;5.70;;;22.50;99.90;;;;;;5034425;28;20076;-52
2023/10/01 12:07:24;;;;;;;13.88;6.40;;;22.60;99.90;;;;;;5034549;28;20037;-47
2023/10/01 12:09:50;;;;;;;13.15;5.90;;;22.70;99.90;;;;;;5034422;28;20045;-53
2023/10/01 12:12:18;;;;;;;14.48;6.38;;;22.80;99.90;;;;;;5034889;28;20376;-46
2023/10/01 12:15:33;;;;;;;11.10;5.60;;;22.90;99.90;;;;;;5034656;28;20050;-50
2023/10/01 12:17:47;;;;;;;25.25;5.65;;;23.00;99.90;;;;;;5034557;28;20069;-54
2023/10/01 12:20:23;;;;;;;9.85;5.35;;;23.10;99.90;;;;;;5034061;28;20033;-52
2023/10/01 12:28:25;;;;;;;18.95;6.97;;;23.10;99.90;;;;;;5033893;28;20051;-50
2023/10/01 12:30:58;;;;;;;26.25;7.53;;;23.20;99.90;;;;;;5033809;28;20050;-52
2023/10/01 12:33:38;;;;;;;50.22;11.70;;;23.20;99.90;;;;;;5034257;28;20392;-54
2023/10/01 12:36:51;;;;;;;87.68;17.17;;;23.20;99.90;;;;;;5034524;28;20045;-53
2023/10/01 12:39:03;;;;;;;71.43;14.38;;;23.20;99.90;;;;;;5036738;28;20060;-52
2023/10/01 12:41:30;;;;;;;48.05;11.02;;;23.20;99.90;;;;;;5040168;28;20055;-55
2023/10/01 12:44:14;;;;;;;57.45;11.90;;;23.10;99.90;;;;;;5052894;28;20432;-51
2023/10/01 12:46:51;;;;;;;49.70;11.68;;;23.10;99.90;;;;;;5053041;28;20049;-51
2023/10/01 12:49:18;;;;;;;28.45;7.85;;;23.20;99.90;;;;;;5053717;28;20044;-53
2023/10/01 12:51:48;;;;;;;62.28;12.82;;;23.30;99.90;;;;;;5053354;28;20131;-51
2023/10/01 12:54:18;;;;;;;35.38;8.38;;;23.40;99.90;;;;;;5053364;28;20072;-53
2023/10/01 12:57:02;;;;;;;15.95;6.45;;;23.40;99.90;;;;;;5053153;28;20102;-53
2023/10/01 12:59:38;;;;;;;69.82;13.50;;;23.40;99.90;;;;;;5053383;28;20068;-50
2023/10/01 13:02:20;;;;;;;40.95;10.48;;;23.30;99.90;;;;;;5053271;28;20059;-53
2023/10/01 13:04:50;;;;;;;29.42;8.70;;;23.30;99.90;;;;;;5053485;28;20056;-55
2023/10/01 13:07:35;;;;;;;118.78;20.77;;;23.20;99.90;;;;;;5053069;28;20044;-48
2023/10/01 13:10:05;;;;;;;20.00;8.32;;;23.30;99.90;;;;;;5053435;28;20045;-51
2023/10/01 13:12:39;;;;;;;17.65;7.43;;;23.30;99.90;;;;;;5053299;28;20036;-47
2023/10/01 13:15:15;;;;;;;11.45;5.78;;;23.30;99.90;;;;;;5053599;28;20045;-47
2023/10/01 13:17:48;;;;;;;12.32;6.20;;;23.20;99.90;;;;;;5053131;28;20124;-49
2023/10/01 13:20:26;;;;;;;13.07;6.00;;;23.30;99.90;;;;;;5053458;28;20048;-47
2023/10/01 13:22:53;;;;;;;14.48;6.35;;;23.30;99.90;;;;;;5052728;28;20476;-48
2023/10/01 13:25:20;;;;;;;14.15;6.50;;;23.40;99.90;;;;;;5053172;28;20393;-46
2023/10/01 13:27:47;;;;;;;13.10;6.45;;;23.50;99.90;;;;;;5052749;28;20072;-44
2023/10/01 13:30:20;;;;;;;11.98;6.10;;;23.50;99.90;;;;;;5052987;28;20037;-49
2023/10/01 13:35:36;;;;;;;12.70;6.65;;;23.50;99.90;;;;;;5053298;28;20051;-51
2023/10/01 13:38:26;;;;;;;14.07;7.00;;;23.50;99.90;;;;;;5053773;28;20064;-47
2023/10/01 14:11:08;;;;;;;14.65;7.63;;;23.40;99.90;;;;;;5053739;28;20056;-49